aviador You're here:

OEDR Decoded Metar

DHAHRAN in SAUDI ARABIA
Report Time2018-01-16 20:00:00
UTC Time2018-01-16 21:04:56
Flight Rules vfr VFR
Wind300° at 07 kt
W.Decomp.*RWY 34: 5.2 kt HW 4.7 kt LCW
W.Rank300° ranks 2
Current wind is below 300° avg. (8.0)
Visibility9999 m
Phenomena:N/A
Clouds:N/A
Expected CloudBase > 2,800 ft AGL from Temp-Dew spread
CeilingNone
Temp14°C (ISA -1)
Dew Point07°C (63% RH)
AAT10.8°C
QNH1017 hPa
Density Alt-49 ft
Elevation56 ft
Report Wrong Elevation
Raw Report
METAR OEDR 162000Z 30007KT CAVOK 14/07 Q1017 NOSIG=

Extra information for OEDR:More info

Metar Taf Metar & Taf Last 4 Metars F.Rules Stats Wind Profile Meteogram Temp Stats Airport Information Weather charts Add Link Nearby VenuesMetar ALERT Operation Metar Decoded Social comments